Vienna, VA (22027)

10:20 PM EDT on July 30, 2016 (GMT -0400)
Falls Church-Westwood Park | | Change Station

Elev 479 ft 38.89 °N, 77.20 °W | Updated 16 seconds ago

Light Rain
Light Rain
72.6 °F
Feels Like 72.6 °F
N
0.0
Wind Variable Wind from ENE
Gusts 3.0 mph

Today
High -- | Low -- °F
--% Chance of Precip.
Yesterday
High -- | Low -- °F
Precip. -- in
Pressure 29.98 in
Visibility 10.0 miles
Clouds Few 1500 ft
Overcast 11000 ft
Dew Point 71 °F
Humidity 95%
Rainfall 0.36 in
Snow Depth Not available.
6:08 AM 8:21 PM
Waning Crescent, 9% visible
METAR KDCA 310152Z 15005KT 10SM -RA FEW015 OVC110 24/22 A2998 RMK AO2 TSE28 SLP150 OCNL LTGIC DSNT NE-E CB DSNT NE-E MOV E P0011 T02390222 $
Pressure 29.98 in
Visibility 10.0 miles
Clouds Few 1500 ft
Overcast 11000 ft
Dew Point 71 °F
Humidity 95%
Rainfall 0.36 in
Snow Depth Not available.
6:08 AM 8:21 PM
Waning Crescent, 9% visible
METAR KDCA 310152Z 15005KT 10SM -RA FEW015 OVC110 24/22 A2998 RMK AO2 TSE28 SLP150 OCNL LTGIC DSNT NE-E CB DSNT NE-E MOV E P0011 T02390222 $

10-Day Weather Forecast

Almanac

Astronomy

Jul. 30, 2016 Rise Set
Actual Time
Civil Twilight
Nautical Twilight
Astronomical Twilight
Moon
Length of Visible Light
Length of Day
Tomorrow will be .
, % of the Moon is Illuminated

Today's Extremes

State Highs State Lows

Community

WunderPhotos

Upload Photos

1,928,706 photos uploaded!

WunderBlog® & News

Nearby

Air Quality

  Air Quality AQ Index Pollutant
Not available.

Snow Depth

Station Depth Elevation

Earthquake Activity

City Distance Mag. Time & Date
Minimum magnitude displayed is 2.5.

Coastal Water Temperatures

Place Temperature

Stations

Nearby Weather Stations

Station Location Temp. Windchill Dew Point Humidity Wind Precip. Elev Updated Type
                   

Watches & Warnings

There are currently no watches in effect.